Time;durP1;ratioP1;P1;durP2;ratioP2;P2;SDS_P1;SDS_P2;PMS_P1;PMS_P2;Temp;Humidity;BMP_temperature;BMP_pressure;BME280_temperature;BME280_humidity;BME280_pressure;Samples;Min_cycle;Max_cycle;Signal;HPM_P1;HPM_P2
2023/08/01 00:00:24;;;;;;;6.70;4.00;;;;;;;19.41;75.34;99772.33;105856;1258;98422;-83
2023/08/01 00:03:25;;;;;;;6.40;3.90;;;;;;;19.41;75.42;99771.30;105952;1257;102805;-84
2023/08/01 00:06:11;;;;;;;7.60;3.60;;;;;;;19.39;75.12;99768.17;105978;1259;99655;-84
2023/08/01 00:08:57;;;;;;;5.10;3.00;;;;;;;19.37;75.19;99768.81;105877;1264;98002;-84
2023/08/01 00:11:43;;;;;;;4.80;3.70;;;;;;;19.36;75.30;99772.40;105870;1257;97975;-83
2023/08/01 00:14:28;;;;;;;4.60;3.60;;;;;;;19.33;75.01;99768.55;105862;1257;98595;-83
2023/08/01 00:17:14;;;;;;;5.90;3.90;;;;;;;19.30;75.29;99768.65;105771;1264;101442;-84
2023/08/01 00:20:00;;;;;;;5.00;3.80;;;;;;;19.28;75.40;99765.32;105798;1259;99185;-84
2023/08/01 00:22:45;;;;;;;8.70;5.10;;;;;;;19.28;75.48;99766.30;105977;1261;98514;-83
2023/08/01 00:25:31;;;;;;;6.00;3.70;;;;;;;19.28;75.42;99764.67;105943;1262;97904;-83
2023/08/01 00:28:21;;;;;;;9.40;4.00;;;;;;;19.28;75.41;99763.80;105926;1257;97789;-83
2023/08/01 00:31:11;;;;;;;10.30;4.70;;;;;;;19.28;75.37;99761.27;105772;1260;102028;-82
2023/08/01 00:33:58;;;;;;;5.70;4.30;;;;;;;19.27;75.56;99761.73;105834;1257;100109;-83
2023/08/01 00:36:43;;;;;;;6.90;3.90;;;;;;;19.27;75.62;99759.23;106025;1259;97894;-84
2023/08/01 00:39:29;;;;;;;4.90;3.70;;;;;;;19.28;75.68;99753.27;105927;1259;97971;-83
2023/08/01 00:42:16;;;;;;;6.80;4.10;;;;;;;19.26;75.68;99751.14;105765;1266;98089;-84
2023/08/01 00:45:02;;;;;;;5.30;3.60;;;;;;;19.27;75.74;99746.20;105967;1262;110035;-83
2023/08/01 00:47:47;;;;;;;6.30;3.50;;;;;;;19.26;75.82;99740.73;105714;1257;99127;-84
2023/08/01 00:50:34;;;;;;;4.10;3.40;;;;;;;19.25;75.83;99736.69;105811;1259;98876;-85
2023/08/01 00:53:20;;;;;;;8.10;3.70;;;;;;;19.25;75.98;99731.21;105951;1257;98062;-83
2023/08/01 00:56:06;;;;;;;6.90;3.80;;;;;;;19.25;76.07;99731.38;106006;1257;97848;-84
2023/08/01 00:58:52;;;;;;;7.50;4.10;;;;;;;19.25;75.87;99722.15;106001;1258;102597;-84
2023/08/01 01:01:37;;;;;;;7.10;3.90;;;;;;;19.25;75.68;99718.45;105872;1262;99250;-84
2023/08/01 01:04:23;;;;;;;7.80;4.20;;;;;;;19.24;75.84;99715.95;105889;1257;99095;-84
2023/08/01 01:07:09;;;;;;;13.10;4.00;;;;;;;19.24;75.84;99711.11;105969;1257;97968;-83
2023/08/01 01:09:55;;;;;;;6.80;3.90;;;;;;;19.24;75.75;99710.24;105972;1263;98057;-83
2023/08/01 01:12:41;;;;;;;10.10;3.70;;;;;;;19.23;75.80;99708.93;105975;1262;102655;-83
2023/08/01 01:15:26;;;;;;;7.60;4.00;;;;;;;19.23;75.86;99707.69;105874;1259;100442;-84
2023/08/01 01:18:13;;;;;;;7.20;4.00;;;;;;;19.23;76.10;99708.55;105949;1257;99052;-83
2023/08/01 01:20:59;;;;;;;6.20;4.30;;;;;;;19.24;76.19;99705.36;106053;1264;97948;-84
2023/08/01 01:23:47;;;;;;;5.00;3.70;;;;;;;19.25;76.06;99702.37;106115;1262;97945;-83
2023/08/01 01:26:34;;;;;;;5.10;4.10;;;;;;;19.25;76.08;99699.05;105866;1257;101449;-84
2023/08/01 01:29:22;;;;;;;6.00;4.00;;;;;;;19.24;76.05;99695.52;105874;1259;108425;-83
2023/08/01 01:32:09;;;;;;;6.10;4.00;;;;;;;19.23;76.10;99693.13;105814;1258;99172;-84
2023/08/01 01:34:56;;;;;;;3.80;3.20;;;;;;;19.23;75.86;99693.40;105785;1257;98051;-85
2023/08/01 01:37:41;;;;;;;6.00;3.40;;;;;;;19.22;76.19;99688.45;105904;1257;98916;-84
2023/08/01 01:40:27;;;;;;;5.30;3.60;;;;;;;19.22;76.07;99684.16;105727;1258;102366;-84
2023/08/01 01:43:12;;;;;;;7.50;3.60;;;;;;;19.24;75.72;99680.60;106079;1257;100464;-84
2023/08/01 01:45:58;;;;;;;6.50;3.50;;;;;;;19.25;76.05;99675.88;105745;1257;98142;-84
2023/08/01 01:48:44;;;;;;;10.70;4.30;;;;;;;19.26;75.92;99671.47;106025;1257;97953;-83
2023/08/01 01:51:30;;;;;;;6.80;3.90;;;;;;;19.27;75.85;99664.73;105927;1263;98425;-85
2023/08/01 01:54:16;;;;;;;9.40;3.40;;;;;;;19.26;75.93;99656.27;105847;1264;101514;-84
2023/08/01 01:57:02;;;;;;;7.30;3.30;;;;;;;19.28;75.64;99651.55;106140;1262;99151;-84
2023/08/01 01:59:47;;;;;;;5.40;3.40;;;;;;;19.26;75.76;99646.77;105952;1264;99124;-84
2023/08/01 02:02:33;;;;;;;5.70;4.00;;;;;;;19.24;75.64;99642.13;105986;1257;97913;-84
2023/08/01 02:05:18;;;;;;;13.70;4.00;;;;;;;19.22;75.70;99639.63;105859;1257;98396;-84
2023/08/01 02:08:04;;;;;;;8.40;3.90;;;;;;;19.21;75.72;99633.55;106014;1262;102711;-84
2023/08/01 02:10:51;;;;;;;9.00;3.00;;;;;;;19.19;75.66;99628.88;105939;1257;99861;-84
2023/08/01 02:13:36;;;;;;;6.00;3.40;;;;;;;19.19;75.64;99622.14;105829;1257;97988;-84
2023/08/01 02:16:22;;;;;;;5.90;3.70;;;;;;;19.17;75.61;99613.02;105824;1257;98586;-83
2023/08/01 02:19:08;;;;;;;5.60;3.60;;;;;;;19.17;75.61;99610.02;106086;1257;99270;-84
2023/08/01 02:21:54;;;;;;;5.50;3.50;;;;;;;19.19;75.61;99607.96;105955;1259;101435;-83
2023/08/01 02:24:40;;;;;;;5.50;3.30;;;;;;;19.19;75.43;99605.20;105733;1259;99160;-84
2023/08/01 02:27:25;;;;;;;5.50;3.50;;;;;;;19.19;75.91;99598.09;106083;1259;97972;-84
2023/08/01 02:30:11;;;;;;;5.00;3.50;;;;;;;19.20;75.70;99592.93;105815;1266;98061;-84
2023/08/01 02:32:57;;;;;;;10.00;3.70;;;;;;;19.18;75.92;99589.61;105887;1257;98528;-84
2023/08/01 02:35:42;;;;;;;5.10;3.40;;;;;;;19.17;75.99;99586.67;105848;1257;101478;-83
2023/08/01 02:38:28;;;;;;;7.90;3.80;;;;;;;19.18;75.91;99586.09;105850;1257;99215;-84
2023/08/01 02:41:14;;;;;;;6.70;3.90;;;;;;;19.17;75.81;99580.76;105978;1262;106261;-84
2023/08/01 02:44:00;;;;;;;3.60;3.20;;;;;;;19.17;75.73;99578.60;105918;1257;97967;-84
2023/08/01 02:46:47;;;;;;;6.70;3.70;;;;;;;19.19;75.77;99576.10;106305;1262;98413;-84
2023/08/01 02:49:33;;;;;;;5.00;3.60;;;;;;;19.21;75.70;99573.06;105792;1259;101501;-83
2023/08/01 02:52:19;;;;;;;6.60;3.60;;;;;;;19.20;75.69;99569.91;105797;1257;99899;-83
2023/08/01 02:55:05;;;;;;;5.40;3.60;;;;;;;19.19;75.56;99571.54;106025;1257;99054;-83
2023/08/01 02:57:50;;;;;;;5.20;3.20;;;;;;;19.18;75.62;99568.38;105888;1257;97933;-82
2023/08/01 03:00:39;;;;;;;6.20;4.10;;;;;;;19.19;75.60;99564.73;105856;1257;98428;-83
2023/08/01 03:03:24;;;;;;;7.10;3.90;;;;;;;19.18;75.42;99558.55;106043;1257;101465;-82
2023/08/01 03:06:10;;;;;;;7.70;3.50;;;;;;;19.17;75.49;99555.78;106050;1257;100964;-84
2023/08/01 03:08:55;;;;;;;6.20;3.50;;;;;;;19.17;75.36;99553.94;105855;1264;98109;-83
2023/08/01 03:11:42;;;;;;;7.10;3.00;;;;;;;19.18;75.24;99558.06;106240;1261;97971;-83
2023/08/01 03:14:28;;;;;;;4.60;3.40;;;;;;;19.17;75.21;99554.42;106092;1262;98130;-83
2023/08/01 03:17:13;;;;;;;5.70;3.30;;;;;;;19.17;75.36;99550.40;105763;1258;102363;-83
2023/08/01 03:19:58;;;;;;;8.10;3.50;;;;;;;19.17;75.10;99541.77;105764;1257;99909;-84
2023/08/01 03:22:44;;;;;;;5.60;3.00;;;;;;;19.20;74.94;99543.90;105908;1264;98057;-84
2023/08/01 03:25:31;;;;;;;4.90;3.20;;;;;;;19.21;75.13;99540.05;105848;1262;98031;-83
2023/08/01 03:28:17;;;;;;;5.00;3.30;;;;;;;19.24;75.25;99534.20;106119;1257;97977;-83
2023/08/01 03:31:03;;;;;;;7.30;3.40;;;;;;;19.26;75.07;99524.27;105880;1262;101431;-84
2023/08/01 03:33:49;;;;;;;7.40;3.00;;;;;;;19.27;75.17;99523.89;106041;1257;100446;-83
2023/08/01 03:36:35;;;;;;;4.40;3.00;;;;;;;19.29;75.13;99521.44;106158;1262;99559;-84
2023/08/01 03:39:20;;;;;;;5.80;3.00;;;;;;;19.31;75.24;99521.77;105842;1263;98094;-84
2023/08/01 03:42:07;;;;;;;7.40;3.00;;;;;;;19.32;75.18;99520.47;105937;1264;98061;-84
2023/08/01 03:44:53;;;;;;;5.10;3.10;;;;;;;19.34;75.03;99515.80;105897;1264;101340;-84
2023/08/01 03:47:38;;;;;;;7.30;3.70;;;;;;;19.37;75.13;99517.45;106065;1262;99272;-83
2023/08/01 03:50:24;;;;;;;4.50;3.10;;;;;;;19.39;75.06;99513.33;106236;1258;98504;-84
2023/08/01 03:53:10;;;;;;;4.70;3.10;;;;;;;19.39;75.02;99510.13;105886;1259;99324;-84
2023/08/01 03:55:55;;;;;;;5.00;3.50;;;;;;;19.42;75.08;99507.47;106076;1259;98511;-84
2023/08/01 03:58:41;;;;;;;4.20;3.00;;;;;;;19.45;74.93;99503.46;106182;1258;101280;-84
2023/08/01 04:01:29;;;;;;;5.30;3.00;;;;;;;19.47;74.58;99504.81;106164;1262;99576;-84
2023/08/01 04:04:14;;;;;;;4.10;2.60;;;;;;;19.48;74.72;99504.20;105963;1258;99247;-84
2023/08/01 04:07:00;;;;;;;4.30;3.00;;;;;;;19.50;74.72;99503.84;105963;1259;98000;-84
2023/08/01 04:09:46;;;;;;;6.10;3.40;;;;;;;19.51;74.59;99498.79;105906;1262;97810;-84
2023/08/01 04:12:33;;;;;;;5.40;3.00;;;;;;;19.52;74.55;99501.05;105996;1262;101453;-84
2023/08/01 04:15:18;;;;;;;4.60;2.90;;;;;;;19.53;74.45;99498.08;105912;1262;101004;-84
2023/08/01 04:18:04;;;;;;;7.50;2.90;;;;;;;19.53;74.57;99492.00;105916;1263;99117;-84
2023/08/01 04:20:50;;;;;;;4.20;2.90;;;;;;;19.56;74.28;99492.48;106000;1258;97923;-83
2023/08/01 04:23:35;;;;;;;3.60;2.70;;;;;;;19.58;74.38;99491.78;106084;1257;96647;-84
2023/08/01 04:26:21;;;;;;;5.00;2.70;;;;;;;19.60;74.10;99487.92;105981;1258;102342;-84
2023/08/01 04:29:07;;;;;;;6.80;3.00;;;;;;;19.62;74.15;99486.73;105960;1263;99199;-84
2023/08/01 04:31:52;;;;;;;9.90;2.70;;;;;;;19.66;74.10;99485.48;106031;1262;98796;-84
2023/08/01 04:34:38;;;;;;;8.40;2.70;;;;;;;19.71;74.16;99484.87;106116;1263;97983;-83
2023/08/01 04:37:23;;;;;;;5.50;2.80;;;;;;;19.77;74.12;99485.89;105888;1262;98424;-83
2023/08/01 04:40:09;;;;;;;3.30;2.40;;;;;;;19.82;73.98;99483.13;105815;1262;102739;-83
2023/08/01 04:42:55;;;;;;;6.10;2.70;;;;;;;19.89;74.00;99481.91;106113;1257;99114;-83
2023/08/01 04:45:40;;;;;;;4.60;2.40;;;;;;;19.95;73.64;99477.06;105859;1257;97996;-83
2023/08/01 04:48:25;;;;;;;4.40;2.80;;;;;;;19.98;73.30;99471.24;106052;1259;98054;-84
2023/08/01 04:51:11;;;;;;;5.50;2.40;;;;;;;20.02;73.02;99470.36;106109;1259;97942;-84
2023/08/01 04:53:57;;;;;;;3.20;2.20;;;;;;;20.05;72.79;99468.45;106006;1259;102091;-84
2023/08/01 04:56:42;;;;;;;5.30;2.90;;;;;;;20.06;72.67;99468.02;106310;1259;100528;-84
2023/08/01 04:59:27;;;;;;;6.30;2.30;;;;;;;20.06;72.29;99464.54;105853;1264;97921;-83
2023/08/01 05:02:13;;;;;;;8.20;2.70;;;;;;;20.07;72.28;99464.27;105977;1258;97957;-84
2023/08/01 05:05:00;;;;;;;4.60;2.10;;;;;;;20.07;72.04;99463.28;106211;1259;98463;-84
2023/08/01 05:07:46;;;;;;;4.50;2.50;;;;;;;20.07;71.71;99463.17;105852;1259;101501;-84
2023/08/01 05:10:32;;;;;;;5.40;2.50;;;;;;;20.06;71.40;99459.58;106211;1264;99234;-84
2023/08/01 05:13:18;;;;;;;3.80;2.40;;;;;;;20.08;71.54;99459.37;106090;1265;99124;-84
2023/08/01 05:16:04;;;;;;;3.50;2.10;;;;;;;20.12;71.37;99455.33;105839;1257;97955;-84
2023/08/01 05:18:50;;;;;;;3.50;2.30;;;;;;;20.15;71.49;99456.19;105883;1259;97898;-85
2023/08/01 05:21:35;;;;;;;5.60;2.60;;;;;;;20.19;71.18;99450.64;105986;1262;102228;-82
2023/08/01 05:24:21;;;;;;;5.90;2.30;;;;;;;20.23;71.28;99448.70;105897;1262;100441;-83
2023/08/01 05:27:06;;;;;;;3.40;2.50;;;;;;;20.28;71.22;99440.68;105836;1262;97999;-84
2023/08/01 05:29:52;;;;;;;6.30;2.20;;;;;;;20.32;71.10;99444.20;106034;1259;97973;-83
2023/08/01 05:32:40;;;;;;;4.40;2.30;;;;;;;20.35;70.78;99437.93;106161;1259;98054;-84
2023/08/01 05:35:25;;;;;;;4.20;2.30;;;;;;;20.39;70.61;99436.56;106031;1262;102352;-83
2023/08/01 05:38:12;;;;;;;3.70;2.20;;;;;;;20.42;70.46;99434.74;105934;1259;99116;-85
2023/08/01 05:40:57;;;;;;;5.50;2.60;;;;;;;20.45;70.25;99436.20;105847;1264;99496;-85
2023/08/01 05:43:43;;;;;;;8.00;2.80;;;;;;;20.47;70.07;99431.40;105859;1259;98111;-85
2023/08/01 05:46:29;;;;;;;7.80;2.80;;;;;;;20.49;70.04;99431.98;105857;1259;97907;-84
2023/08/01 05:49:14;;;;;;;4.00;2.10;;;;;;;20.52;69.90;99430.95;105943;1258;101430;-84
2023/08/01 05:52:00;;;;;;;8.20;2.40;;;;;;;20.55;69.87;99427.92;106037;1259;100368;-83
2023/08/01 05:54:48;;;;;;;5.40;2.30;;;;;;;20.59;69.80;99424.77;106180;1258;98006;-83
2023/08/01 05:57:34;;;;;;;4.40;2.30;;;;;;;20.63;69.53;99423.11;105828;1262;97928;-83
2023/08/01 06:00:23;;;;;;;5.70;2.30;;;;;;;20.67;69.49;99421.72;105987;1264;98488;-84
2023/08/01 06:03:08;;;;;;;5.00;2.80;;;;;;;20.74;69.28;99422.11;106052;1259;102336;-84
2023/08/01 06:05:54;;;;;;;5.70;2.90;;;;;;;20.80;68.98;99417.02;106194;1259;99089;-84
2023/08/01 06:08:39;;;;;;;5.30;2.20;;;;;;;20.84;68.61;99414.88;106445;1258;97993;-89
2023/08/01 06:11:26;;;;;;;5.50;2.40;;;;;;;20.89;68.66;99415.60;105881;1258;97984;-85
2023/08/01 06:14:12;;;;;;;6.40;2.20;;;;;;;20.93;68.74;99420.73;105884;1259;98006;-85
2023/08/01 06:16:58;;;;;;;3.90;2.30;;;;;;;20.97;68.25;99420.88;105989;1257;101432;-84
2023/08/01 06:19:43;;;;;;;4.70;2.00;;;;;;;21.01;68.20;99412.19;105814;1266;99082;-83
2023/08/01 06:22:29;;;;;;;6.60;3.30;;;;;;;21.05;68.05;99407.84;105866;1259;97920;-87
2023/08/01 06:25:14;;;;;;;5.90;2.10;;;;;;;21.11;67.88;99408.83;105829;1257;97986;-83
2023/08/01 06:28:00;;;;;;;4.20;2.50;;;;;;;21.19;67.73;99402.98;106585;1262;98505;-86
2023/08/01 06:30:46;;;;;;;3.90;1.90;;;;;;;21.25;67.03;99399.40;105736;1259;101492;-83
2023/08/01 06:33:31;;;;;;;6.80;2.10;;;;;;;21.32;67.40;99397.15;106419;1261;108157;-87
2023/08/01 06:36:17;;;;;;;3.80;2.10;;;;;;;21.38;67.04;99396.73;106195;1259;98851;-87
2023/08/01 06:39:03;;;;;;;4.10;2.20;;;;;;;21.46;67.04;99401.55;106205;1257;98026;-82
2023/08/01 06:41:49;;;;;;;4.90;2.00;;;;;;;21.55;66.75;99399.01;106380;1259;98579;-87
2023/08/01 06:44:35;;;;;;;9.10;2.30;;;;;;;21.62;66.54;99393.23;106132;1258;102823;-82
2023/08/01 06:47:21;;;;;;;5.60;2.40;;;;;;;21.68;66.16;99392.46;106431;1262;99129;-88
2023/08/01 06:50:08;;;;;;;4.60;2.30;;;;;;;21.75;66.24;99391.09;106372;1259;99255;-82
2023/08/01 06:52:54;;;;;;;7.70;2.20;;;;;;;21.82;65.74;99390.05;106284;1259;97968;-87
2023/08/01 06:55:39;;;;;;;3.90;2.00;;;;;;;21.87;65.65;99388.02;106261;1262;98000;-85
2023/08/01 06:58:25;;;;;;;6.00;2.00;;;;;;;21.94;65.42;99386.98;106026;1259;102576;-85
2023/08/01 07:01:11;;;;;;;3.60;2.10;;;;;;;22.02;65.23;99386.17;106167;1259;100235;-86
2023/08/01 07:03:57;;;;;;;3.80;2.10;;;;;;;22.09;65.15;99379.48;106259;1259;97991;-86
2023/08/01 07:06:43;;;;;;;7.20;2.50;;;;;;;22.17;65.29;99374.26;106285;1264;98061;-87
2023/08/01 07:09:29;;;;;;;5.40;2.40;;;;;;;22.25;65.11;99371.81;106406;1262;98447;-88
2023/08/01 07:12:15;;;;;;;4.50;2.50;;;;;;;22.32;64.66;99367.04;106448;1259;102556;-86
2023/08/01 07:15:01;;;;;;;7.60;2.40;;;;;;;22.36;64.44;99365.23;106374;1259;99205;-88
2023/08/01 07:17:47;;;;;;;5.00;2.20;;;;;;;22.41;64.17;99371.16;106336;1265;97960;-86
2023/08/01 07:20:34;;;;;;;4.70;2.00;;;;;;;22.45;64.26;99367.35;106179;1262;98035;-86
2023/08/01 07:23:19;;;;;;;6.30;2.00;;;;;;;22.45;63.43;99362.65;106391;1258;96420;-87
2023/08/01 07:26:06;;;;;;;2.90;2.00;;;;;;;22.43;63.07;99362.56;106394;1258;101473;-88
2023/08/01 07:28:52;;;;;;;6.30;2.20;;;;;;;22.44;63.32;99362.17;106359;1257;99316;-86
2023/08/01 07:31:38;;;;;;;4.70;2.50;;;;;;;22.45;63.31;99363.97;106342;1257;97956;-87
2023/08/01 07:34:25;;;;;;;4.80;2.30;;;;;;;22.47;63.46;99362.08;106510;1262;97973;-86
2023/08/01 07:37:11;;;;;;;3.20;2.10;;;;;;;22.45;63.38;99355.77;106400;1257;98705;-86
2023/08/01 07:39:57;;;;;;;5.30;2.30;;;;;;;22.44;63.14;99354.92;105893;1259;101336;-83
2023/08/01 07:42:43;;;;;;;7.00;2.50;;;;;;;22.43;63.44;99352.04;105830;1265;100267;-84
2023/08/01 07:45:28;;;;;;;6.90;2.20;;;;;;;22.42;63.46;99350.73;105723;1259;98429;-85
2023/08/01 07:48:13;;;;;;;8.50;2.50;;;;;;;22.43;63.53;99346.04;105756;1259;98012;-86
2023/08/01 07:50:59;;;;;;;4.50;2.00;;;;;;;22.44;63.55;99340.23;105762;1264;181067;-85
2023/08/01 07:53:44;;;;;;;5.60;2.30;;;;;;;22.45;63.47;99342.73;106066;1264;101436;-83
2023/08/01 07:56:30;;;;;;;4.60;2.30;;;;;;;22.45;63.66;99341.25;106100;1258;100307;-84
2023/08/01 07:59:16;;;;;;;4.20;2.10;;;;;;;22.43;63.29;99345.65;105998;1259;97968;-85
2023/08/01 08:02:02;;;;;;;6.90;2.50;;;;;;;22.41;63.72;99344.03;106076;1259;98401;-84
2023/08/01 08:04:48;;;;;;;7.20;2.40;;;;;;;22.41;63.59;99337.00;106063;1262;97638;-83
2023/08/01 08:07:33;;;;;;;8.40;2.60;;;;;;;22.40;63.64;99336.67;106298;1259;101441;-86
2023/08/01 08:10:19;;;;;;;6.00;2.50;;;;;;;22.39;63.58;99341.50;106216;1257;99924;-84
2023/08/01 08:13:05;;;;;;;4.20;2.40;;;;;;;22.36;63.60;99336.95;106460;1259;97890;-84
2023/08/01 08:15:50;;;;;;;5.70;2.60;;;;;;;22.34;63.58;99337.75;106154;1265;98160;-84
2023/08/01 08:18:36;;;;;;;6.90;2.50;;;;;;;22.35;64.28;99336.15;106156;1259;98447;-84
2023/08/01 08:21:21;;;;;;;5.20;2.40;;;;;;;22.41;64.29;99334.33;106056;1265;101364;-85
2023/08/01 08:24:07;;;;;;;3.50;2.00;;;;;;;22.47;64.09;99330.97;105882;1258;99761;-84
2023/08/01 08:26:53;;;;;;;7.20;2.60;;;;;;;22.53;64.34;99330.94;105895;1260;98827;-84
2023/08/01 08:29:39;;;;;;;9.80;2.90;;;;;;;22.63;64.47;99327.48;105886;1263;97893;-84
2023/08/01 08:32:24;;;;;;;6.00;2.80;;;;;;;22.73;64.36;99327.87;105858;1257;97967;-84
2023/08/01 08:35:11;;;;;;;3.90;2.70;;;;;;;22.86;64.27;99329.73;106014;1262;101490;-85
2023/08/01 08:37:59;;;;;;;6.50;2.60;;;;;;;22.98;64.17;99328.34;105979;1265;99174;-84
2023/08/01 08:41:10;;;;;;;5.70;2.50;;;;;;;23.09;63.91;99322.91;106077;1262;98547;-85
2023/08/01 08:44:01;;;;;;;6.00;2.60;;;;;;;23.22;63.92;99321.92;105906;1259;98420;-84
2023/08/01 08:46:52;;;;;;;4.90;2.20;;;;;;;23.41;63.71;99312.60;106158;1262;98399;-85
2023/08/01 08:49:39;;;;;;;6.70;2.40;;;;;;;23.59;63.51;99310.65;105746;1259;102028;-85
2023/08/01 08:52:25;;;;;;;5.40;2.70;;;;;;;23.73;63.20;99309.66;105881;1262;101174;-84
2023/08/01 08:55:11;;;;;;;4.70;2.50;;;;;;;23.77;62.43;99309.54;105943;1264;98485;-84
2023/08/01 08:57:59;;;;;;;6.10;2.50;;;;;;;23.76;61.97;99312.73;105995;1257;98270;-84
2023/08/01 09:00:45;;;;;;;4.40;2.50;;;;;;;23.76;62.18;99313.98;105910;1259;98628;-85
2023/08/01 09:03:31;;;;;;;7.80;2.50;;;;;;;23.76;62.02;99315.29;105846;1262;101423;-87
2023/08/01 09:06:29;;;;;;;10.10;2.70;;;;;;;23.75;62.02;99319.46;105748;1259;99187;-85
2023/08/01 09:09:15;;;;;;;5.80;2.50;;;;;;;23.76;62.38;99316.66;105917;1257;98632;-85
2023/08/01 09:12:01;;;;;;;4.70;2.50;;;;;;;23.76;61.83;99319.71;105704;1260;97975;-85
2023/08/01 09:14:50;;;;;;;6.00;2.70;;;;;;;23.73;61.81;99319.95;105909;1260;97915;-83
2023/08/01 09:17:47;;;;;;;4.30;2.30;;;;;;;23.71;62.37;99316.55;106087;1262;102045;-85
2023/08/01 09:20:47;;;;;;;5.10;3.10;;;;;;;23.74;62.38;99314.73;106092;1262;100409;-83
2023/08/01 09:23:32;;;;;;;5.00;2.60;;;;;;;23.79;62.44;99313.39;106036;1260;98515;-85
2023/08/01 09:26:20;;;;;;;6.90;2.30;;;;;;;23.81;62.63;99310.23;105809;1260;98056;-86
2023/08/01 09:29:07;;;;;;;8.40;2.40;;;;;;;23.81;62.45;99309.40;106005;1265;98036;-86
2023/08/01 09:31:54;;;;;;;4.40;3.00;;;;;;;23.77;62.58;99308.55;106594;1260;101545;-85
2023/08/01 09:34:42;;;;;;;5.70;2.70;;;;;;;23.70;62.55;99314.33;105990;1259;100342;-84
2023/08/01 09:37:39;;;;;;;6.20;2.80;;;;;;;23.61;62.52;99314.66;105961;1260;98250;-86
2023/08/01 09:40:25;;;;;;;4.30;2.30;;;;;;;23.53;63.08;99312.04;105960;1257;98370;-85
2023/08/01 09:43:13;;;;;;;7.40;2.40;;;;;;;23.46;63.80;99313.80;105731;1257;97927;-85
2023/08/01 09:45:58;;;;;;;3.10;2.50;;;;;;;23.38;64.47;99313.46;105705;1264;102196;-83
2023/08/01 09:48:43;;;;;;;4.40;3.00;;;;;;;23.31;64.99;99317.73;105741;1264;99631;-86
2023/08/01 09:51:29;;;;;;;4.60;3.00;;;;;;;23.23;65.74;99320.76;105829;1258;99107;-84
2023/08/01 09:54:16;;;;;;;7.90;3.30;;;;;;;23.13;65.94;99314.17;106248;1257;98065;-89
2023/08/01 09:57:04;;;;;;;5.30;2.80;;;;;;;22.99;66.24;99312.91;105798;1262;97968;-83
2023/08/01 09:59:50;;;;;;;5.50;2.90;;;;;;;22.90;66.89;99313.79;105936;1265;101886;-85
2023/08/01 10:02:37;;;;;;;7.00;3.30;;;;;;;22.84;67.91;99317.16;108131;1259;99159;-83
2023/08/01 10:05:23;;;;;;;4.90;3.10;;;;;;;22.78;68.68;99310.54;107868;1263;97589;-83
2023/08/01 10:08:09;;;;;;;5.80;2.80;;;;;;;22.73;69.32;99308.98;106393;1262;97874;-81
2023/08/01 10:10:57;;;;;;;5.80;3.20;;;;;;;22.69;69.68;99310.36;106335;1262;98431;-83
2023/08/01 10:13:43;;;;;;;4.10;2.80;;;;;;;22.66;70.11;99307.84;106596;1267;102664;-80
2023/08/01 10:16:30;;;;;;;5.50;3.20;;;;;;;22.64;70.53;99308.20;106486;1263;99316;-82
2023/08/01 10:19:16;;;;;;;4.00;3.10;;;;;;;22.63;71.33;99308.55;106251;1265;99102;-83
2023/08/01 10:22:03;;;;;;;5.60;3.40;;;;;;;22.62;72.24;99308.99;106047;1257;97977;-85
2023/08/01 10:24:49;;;;;;;5.20;3.40;;;;;;;22.64;73.12;99305.09;105908;1262;98602;-84
2023/08/01 10:27:36;;;;;;;3.70;3.00;;;;;;;22.64;73.38;99301.75;105806;1263;101451;-83
2023/08/01 10:30:26;;;;;;;7.10;4.20;;;;;;;22.64;73.66;99304.00;105681;1265;99079;-82
2023/08/01 10:33:12;;;;;;;7.50;3.60;;;;;;;22.60;74.01;99301.70;105993;1257;99558;-84
2023/08/01 10:35:58;;;;;;;5.40;3.30;;;;;;;22.59;74.70;99298.92;106014;1264;97910;-86
2023/08/01 10:38:48;;;;;;;5.80;3.30;;;;;;;22.61;75.20;99298.09;106148;1263;96263;-87
2023/08/01 10:41:37;;;;;;;7.60;3.70;;;;;;;22.62;75.63;99293.05;106218;1262;101343;-88
2023/08/01 10:44:23;;;;;;;6.20;3.60;;;;;;;22.61;75.93;99287.88;105960;1264;99758;-86
2023/08/01 10:47:09;;;;;;;5.60;3.10;;;;;;;22.61;76.25;99287.89;106175;1266;98681;-87
2023/08/01 10:49:55;;;;;;;5.50;3.60;;;;;;;22.59;76.72;99287.90;106087;1264;97990;-87
2023/08/01 10:52:43;;;;;;;5.30;3.40;;;;;;;22.57;76.91;99283.77;106272;1264;98395;-88
2023/08/01 10:55:38;;;;;;;8.00;4.20;;;;;;;22.57;77.18;99278.14;106341;1258;110763;-87
2023/08/01 10:58:27;;;;;;;5.20;3.10;;;;;;;22.61;77.77;99280.52;106029;1263;99802;-83
2023/08/01 11:01:13;;;;;;;7.50;3.50;;;;;;;22.69;78.93;99272.14;105779;1259;99656;-84
2023/08/01 11:03:59;;;;;;;7.30;3.20;;;;;;;22.75;78.74;99268.59;105976;1264;97921;-85
2023/08/01 11:06:46;;;;;;;6.60;3.60;;;;;;;22.80;78.51;99267.81;106010;1265;98563;-87
2023/08/01 11:09:32;;;;;;;5.40;3.00;;;;;;;22.86;79.09;99261.38;105916;1258;102437;-81
2023/08/01 11:12:18;;;;;;;4.40;3.10;;;;;;;22.91;78.52;99257.52;105951;1264;99096;-82
2023/08/01 11:15:08;;;;;;;6.30;3.50;;;;;;;22.94;77.71;99256.75;106003;1265;98391;-82
2023/08/01 11:17:55;;;;;;;4.70;4.10;;;;;;;22.97;77.85;99251.98;106283;1262;97980;-81
2023/08/01 11:20:41;;;;;;;6.10;3.90;;;;;;;23.01;77.30;99246.08;106183;1262;97949;-81
2023/08/01 11:23:30;;;;;;;6.30;3.40;;;;;;;23.03;76.83;99246.98;106243;1265;102214;-83
2023/08/01 11:26:15;;;;;;;6.40;3.40;;;;;;;23.07;76.61;99240.47;105992;1257;99095;-82
2023/08/01 11:29:03;;;;;;;4.50;3.40;;;;;;;23.12;76.08;99235.01;105958;1257;97989;-83
2023/08/01 11:31:56;;;;;;;7.40;3.80;;;;;;;23.18;75.75;99231.62;105948;1257;98054;-82
2023/08/01 11:34:44;;;;;;;4.70;3.60;;;;;;;23.28;75.96;99226.64;106359;1259;98422;-82
2023/08/01 11:37:30;;;;;;;4.70;3.30;;;;;;;23.42;75.60;99219.50;105961;1259;103458;-87
2023/08/01 11:40:17;;;;;;;5.10;2.80;;;;;;;23.57;75.45;99218.26;106159;1259;99262;-86
2023/08/01 11:43:04;;;;;;;4.20;2.70;;;;;;;23.66;74.95;99218.80;106181;1260;99552;-87
2023/08/01 11:45:55;;;;;;;5.40;3.10;;;;;;;23.71;73.83;99211.05;106343;1264;98065;-87
2023/08/01 11:48:46;;;;;;;8.20;3.40;;;;;;;23.69;73.15;99207.48;106084;1257;97979;-86
2023/08/01 11:51:40;;;;;;;3.90;3.20;;;;;;;23.65;72.50;99203.48;105720;1265;102474;-86
2023/08/01 11:54:26;;;;;;;6.80;3.40;;;;;;;23.63;72.47;99198.39;106099;1266;100442;-86
2023/08/01 11:57:11;;;;;;;5.30;3.00;;;;;;;23.61;72.11;99198.88;106115;1259;100353;-83
2023/08/01 11:59:57;;;;;;;7.70;3.00;;;;;;;23.55;71.68;99197.85;106526;1263;97877;-88
2023/08/01 12:02:43;;;;;;;3.80;3.00;;;;;;;23.47;71.49;99194.08;105980;1266;97849;-85
2023/08/01 12:05:29;;;;;;;5.50;2.70;;;;;;;23.45;71.61;99190.19;106299;1259;110916;-88
2023/08/01 12:08:15;;;;;;;5.60;2.90;;;;;;;23.45;71.89;99188.38;105924;1262;100943;-82
2023/08/01 12:11:01;;;;;;;5.00;2.90;;;;;;;23.43;71.50;99184.92;106096;1264;97963;-82
2023/08/01 12:13:48;;;;;;;6.40;3.10;;;;;;;23.40;71.35;99184.81;106039;1257;97953;-83
2023/08/01 12:16:33;;;;;;;6.40;3.30;;;;;;;23.36;71.28;99187.36;106173;1257;97743;-82
2023/08/01 12:19:20;;;;;;;7.20;4.90;;;;;;;23.33;71.19;99183.09;106019;1257;101476;-82
2023/08/01 12:22:05;;;;;;;6.10;3.60;;;;;;;23.32;71.20;99180.21;106282;1263;100334;-82
2023/08/01 12:24:50;;;;;;;5.80;4.20;;;;;;;23.32;71.20;99178.46;106287;1262;98535;-80
2023/08/01 12:27:36;;;;;;;6.50;3.50;;;;;;;23.33;71.81;99179.33;106181;1263;97967;-79
2023/08/01 12:30:21;;;;;;;7.00;2.90;;;;;;;23.33;71.52;99178.17;106179;1257;98488;-80
2023/08/01 12:33:08;;;;;;;4.20;3.10;;;;;;;23.30;71.20;99179.08;106258;1257;101414;-80
2023/08/01 12:35:53;;;;;;;4.10;3.60;;;;;;;23.27;71.19;99177.46;106162;1257;99270;-84
2023/08/01 12:38:39;;;;;;;5.40;3.10;;;;;;;23.24;71.56;99170.13;106309;1261;97710;-81
2023/08/01 12:41:24;;;;;;;4.20;3.20;;;;;;;23.26;71.61;99166.39;106374;1263;97896;-81
2023/08/01 12:44:10;;;;;;;5.50;2.90;;;;;;;23.27;71.54;99163.03;106335;1262;96993;-83
2023/08/01 12:46:55;;;;;;;6.60;2.90;;;;;;;23.29;71.64;99157.59;106027;1257;101347;-83
2023/08/01 12:49:41;;;;;;;4.80;3.10;;;;;;;23.34;71.60;99153.34;105789;1258;99930;-85